Time,TemperatureF,DewpointF,PressureIn,WindDirection,WindDirectionDegrees,WindSpeedMPH,WindSpeedGustMPH,Humidity,HourlyPrecipIn,Conditions,Clouds,dailyrainin,SoftwareType,DateUTC
2013-09-05 00:00:00,71.6,66.5,30.12,South,180,0.0,0.0,84,0.00,,,0.00,WUHU216HW,2013-09-05 04:00:00,
2013-09-05 00:01:00,71.6,66.5,30.12,South,180,0.0,0.0,84,0.00,,,0.00,WUHU216HW,2013-09-05 04:01:00,
2013-09-05 00:02:00,71.6,66.5,30.12,South,180,0.0,0.0,84,0.00,,,0.00,WUHU216HW,2013-09-05 04:02:00,
2013-09-05 00:07:00,71.6,66.5,30.12,South,180,0.0,0.0,84,0.00,,,0.00,WUHU216HW,2013-09-05 04:07:00,
2013-09-05 00:30:00,70.9,65.8,30.12,South,180,0.0,0.0,84,0.00,,,0.00,WUHU216HW,2013-09-05 04:30:00,
2013-09-05 00:35:00,70.9,65.8,30.12,South,180,0.0,0.0,84,0.00,,,0.00,WUHU216HW,2013-09-05 04:35:00,
2013-09-05 01:00:00,70.4,65.6,30.12,South,180,0.0,0.0,85,0.00,,,0.00,WUHU216HW,2013-09-05 05:00:00,
2013-09-05 01:05:00,70.4,65.6,30.12,South,180,0.0,0.0,85,0.00,,,0.00,WUHU216HW,2013-09-05 05:05:00,
2013-09-05 01:30:00,69.8,65.1,30.12,South,180,0.0,0.0,85,0.00,,,0.00,WUHU216HW,2013-09-05 05:30:00,
2013-09-05 01:35:00,69.8,65.1,30.12,South,180,0.0,0.0,85,0.00,,,0.00,WUHU216HW,2013-09-05 05:35:00,
2013-09-05 02:00:00,68.8,64.4,30.10,South,180,0.0,0.0,86,0.00,,,0.00,WUHU216HW,2013-09-05 06:00:00,
2013-09-05 02:05:00,68.8,64.4,30.10,South,180,0.0,0.0,86,0.00,,,0.00,WUHU216HW,2013-09-05 06:05:00,
2013-09-05 02:30:00,68.6,64.2,30.10,South,180,0.0,0.0,86,0.00,,,0.00,WUHU216HW,2013-09-05 06:30:00,
2013-09-05 02:35:00,68.6,64.2,30.10,South,180,0.0,0.0,86,0.00,,,0.00,WUHU216HW,2013-09-05 06:35:00,
2013-09-05 03:00:00,68.0,64.0,30.10,South,180,0.0,0.0,87,0.00,,,0.00,WUHU216HW,2013-09-05 07:00:00,
2013-09-05 03:05:00,68.0,64.0,30.10,South,180,0.0,0.0,87,0.00,,,0.00,WUHU216HW,2013-09-05 07:05:00,
2013-09-05 03:30:00,67.9,63.8,30.10,South,180,0.0,0.0,87,0.00,,,0.00,WUHU216HW,2013-09-05 07:30:00,
2013-09-05 03:35:00,67.9,63.8,30.10,South,180,0.0,0.0,87,0.00,,,0.00,WUHU216HW,2013-09-05 07:35:00,
2013-09-05 04:00:00,67.7,64.0,30.09,South,180,0.0,0.0,88,0.00,,,0.00,WUHU216HW,2013-09-05 08:00:00,
2013-09-05 04:05:00,67.7,64.0,30.09,South,180,0.0,0.0,88,0.00,,,0.00,WUHU216HW,2013-09-05 08:05:00,
2013-09-05 04:30:00,67.7,63.6,30.09,South,180,0.0,0.0,87,0.00,,,0.00,WUHU216HW,2013-09-05 08:30:00,
2013-09-05 04:35:00,67.7,63.6,30.09,South,180,0.0,0.0,87,0.00,,,0.00,WUHU216HW,2013-09-05 08:35:00,
2013-09-05 05:00:00,67.1,63.1,30.09,South,180,0.0,0.0,87,0.00,,,0.00,WUHU216HW,2013-09-05 09:00:00,
2013-09-05 05:05:00,67.1,63.1,30.09,South,180,0.0,0.0,87,0.00,,,0.00,WUHU216HW,2013-09-05 09:05:00,
2013-09-05 05:30:00,66.6,62.9,30.09,South,180,0.0,0.0,88,0.00,,,0.00,WUHU216HW,2013-09-05 09:30:00,
2013-09-05 05:35:00,66.6,62.9,30.09,South,180,0.0,0.0,88,0.00,,,0.00,WUHU216HW,2013-09-05 09:35:00,
2013-09-05 06:00:00,66.4,63.0,30.10,South,180,0.0,0.0,89,0.00,,,0.00,WUHU216HW,2013-09-05 10:00:00,
2013-09-05 06:05:00,66.4,63.0,30.10,South,180,0.0,0.0,89,0.00,,,0.00,WUHU216HW,2013-09-05 10:05:00,
2013-09-05 06:30:00,65.7,62.7,30.10,South,180,0.0,0.0,90,0.00,,,0.00,WUHU216HW,2013-09-05 10:30:00,
2013-09-05 06:35:00,65.7,62.7,30.10,South,180,0.0,0.0,90,0.00,,,0.00,WUHU216HW,2013-09-05 10:35:00,
2013-09-05 07:00:00,65.7,62.7,30.12,South,180,0.0,0.0,90,0.00,,,0.00,WUHU216HW,2013-09-05 11:00:00,
2013-09-05 07:05:00,65.7,62.7,30.12,South,180,0.0,0.0,90,0.00,,,0.00,WUHU216HW,2013-09-05 11:05:00,
2013-09-05 07:30:00,66.1,63.0,30.12,South,180,0.0,0.0,90,0.00,,,0.00,WUHU216HW,2013-09-05 11:30:00,
2013-09-05 07:35:00,66.1,63.0,30.12,South,180,0.0,0.0,90,0.00,,,0.00,WUHU216HW,2013-09-05 11:35:00,
2013-09-05 08:00:00,66.4,63.4,30.12,South,180,0.0,0.0,90,0.00,,,0.00,WUHU216HW,2013-09-05 12:00:00,
2013-09-05 08:05:00,66.4,63.4,30.12,South,180,0.0,0.0,90,0.00,,,0.00,WUHU216HW,2013-09-05 12:05:00,
2013-09-05 08:30:00,67.0,63.9,30.12,South,180,0.0,0.0,90,0.00,,,0.00,WUHU216HW,2013-09-05 12:30:00,
2013-09-05 08:35:00,67.0,63.9,30.12,South,180,0.0,0.0,90,0.00,,,0.00,WUHU216HW,2013-09-05 12:35:00,
2013-09-05 09:00:00,68.4,64.7,30.12,South,180,0.0,0.0,88,0.00,,,0.00,WUHU216HW,2013-09-05 13:00:00,
2013-09-05 09:05:00,68.4,64.7,30.12,South,180,0.0,0.0,88,0.00,,,0.00,WUHU216HW,2013-09-05 13:05:00,
2013-09-05 09:30:00,70.2,65.8,30.13,South,180,0.0,0.0,86,0.00,,,0.00,WUHU216HW,2013-09-05 13:30:00,
2013-09-05 09:35:00,70.2,65.8,30.13,South,180,0.0,0.0,86,0.00,,,0.00,WUHU216HW,2013-09-05 13:35:00,
2013-09-05 10:00:00,71.6,65.9,30.13,South,180,0.0,0.0,82,0.00,,,0.00,WUHU216HW,2013-09-05 14:00:00,
2013-09-05 10:05:00,71.6,65.9,30.13,South,180,0.0,0.0,82,0.00,,,0.00,WUHU216HW,2013-09-05 14:05:00,
2013-09-05 10:30:00,72.9,65.7,30.13,South,180,0.0,0.0,78,0.00,,,0.00,WUHU216HW,2013-09-05 14:30:00,
2013-09-05 10:35:00,72.9,65.7,30.13,South,180,0.0,0.0,78,0.00,,,0.00,WUHU216HW,2013-09-05 14:35:00,
2013-09-05 11:00:00,74.2,65.3,30.12,South,180,1.1,1.1,74,0.00,,,0.00,WUHU216HW,2013-09-05 15:00:00,
2013-09-05 11:05:00,74.2,65.3,30.12,South,180,1.1,1.1,74,0.00,,,0.00,WUHU216HW,2013-09-05 15:05:00,
2013-09-05 11:30:00,75.8,65.7,30.12,South,180,0.4,0.4,71,0.00,,,0.00,WUHU216HW,2013-09-05 15:30:00,
2013-09-05 11:35:00,75.8,65.7,30.12,South,180,0.4,0.4,71,0.00,,,0.00,WUHU216HW,2013-09-05 15:35:00,
2013-09-05 12:00:00,78.5,66.6,30.12,South,180,0.0,0.0,67,0.00,,,0.00,WUHU216HW,2013-09-05 16:00:00,
2013-09-05 12:05:00,78.5,66.6,30.12,South,180,0.0,0.0,67,0.00,,,0.00,WUHU216HW,2013-09-05 16:05:00,
2013-09-05 12:30:00,80.8,66.6,30.12,NNW,338,0.9,0.9,62,0.00,,,0.00,WUHU216HW,2013-09-05 16:30:00,
2013-09-05 12:35:00,80.8,66.6,30.12,NNW,338,0.9,0.9,62,0.00,,,0.00,WUHU216HW,2013-09-05 16:35:00,
2013-09-05 13:00:00,82.6,67.3,30.12,South,180,1.3,1.3,60,0.00,,,0.00,WUHU216HW,2013-09-05 17:00:00,
2013-09-05 13:05:00,82.6,67.3,30.12,South,180,1.3,1.3,60,0.00,,,0.00,WUHU216HW,2013-09-05 17:05:00,
2013-09-05 13:30:00,83.3,66.5,30.12,SW,225,0.7,0.7,57,0.00,,,0.00,WUHU216HW,2013-09-05 17:30:00,
2013-09-05 13:35:00,83.3,66.5,30.12,SW,225,0.7,0.7,57,0.00,,,0.00,WUHU216HW,2013-09-05 17:35:00,
2013-09-05 14:00:00,85.1,67.1,30.11,SSW,203,0.4,0.4,55,0.00,,,0.00,WUHU216HW,2013-09-05 18:00:00,
2013-09-05 14:05:00,85.1,67.1,30.11,SSW,203,0.4,0.4,55,0.00,,,0.00,WUHU216HW,2013-09-05 18:05:00,
2013-09-05 14:30:00,85.3,66.2,30.10,NNE,23,1.1,1.1,53,0.00,,,0.00,WUHU216HW,2013-09-05 18:30:00,
2013-09-05 14:35:00,85.3,66.2,30.10,NNE,23,1.1,1.1,53,0.00,,,0.00,WUHU216HW,2013-09-05 18:35:00,
2013-09-05 15:00:00,85.7,67.2,30.09,NW,315,0.2,0.2,54,0.00,,,0.00,WUHU216HW,2013-09-05 19:00:00,
2013-09-05 15:05:00,85.7,67.2,30.09,NW,315,0.2,0.2,54,0.00,,,0.00,WUHU216HW,2013-09-05 19:05:00,
2013-09-05 15:30:00,85.7,66.6,30.08,North,0,0.0,0.0,53,0.00,,,0.00,WUHU216HW,2013-09-05 19:30:00,
2013-09-05 15:35:00,85.7,66.6,30.08,North,0,0.0,0.0,53,0.00,,,0.00,WUHU216HW,2013-09-05 19:35:00,
2013-09-05 16:00:00,85.3,65.7,30.08,NNW,338,0.0,0.0,52,0.00,,,0.00,WUHU216HW,2013-09-05 20:00:00,
2013-09-05 16:05:00,85.3,65.7,30.08,NNW,338,0.0,0.0,52,0.00,,,0.00,WUHU216HW,2013-09-05 20:05:00,
2013-09-05 16:30:00,85.1,65.6,30.08,SSW,203,0.0,0.0,52,0.00,,,0.00,WUHU216HW,2013-09-05 20:30:00,
2013-09-05 16:35:00,85.1,65.6,30.08,SSW,203,0.0,0.0,52,0.00,,,0.00,WUHU216HW,2013-09-05 20:35:00,
2013-09-05 17:00:00,83.9,63.9,30.07,NNE,23,0.0,0.0,51,0.00,,,0.00,WUHU216HW,2013-09-05 21:00:00,
2013-09-05 17:05:00,83.9,63.9,30.07,NNE,23,0.0,0.0,51,0.00,,,0.00,WUHU216HW,2013-09-05 21:05:00,
2013-09-05 17:30:00,83.2,64.2,30.08,SW,225,0.0,0.0,53,0.00,,,0.00,WUHU216HW,2013-09-05 21:30:00,
2013-09-05 17:35:00,83.2,64.2,30.08,SW,225,0.0,0.0,53,0.00,,,0.00,WUHU216HW,2013-09-05 21:35:00,
2013-09-05 18:00:00,82.4,65.1,30.08,ESE,113,0.0,0.0,56,0.00,,,0.00,WUHU216HW,2013-09-05 22:00:00,
2013-09-05 18:05:00,82.4,65.1,30.08,ESE,113,0.0,0.0,56,0.00,,,0.00,WUHU216HW,2013-09-05 22:05:00,
2013-09-05 18:30:00,81.4,65.2,30.08,ESE,113,0.0,0.0,58,0.00,,,0.00,WUHU216HW,2013-09-05 22:30:00,
2013-09-05 18:35:00,81.4,65.2,30.08,ESE,113,0.0,0.0,58,0.00,,,0.00,WUHU216HW,2013-09-05 22:35:00,
2013-09-05 19:00:00,79.7,65.2,30.07,ESE,113,0.0,0.0,61,0.00,,,0.00,WUHU216HW,2013-09-05 23:00:00,
2013-09-05 19:05:00,79.7,65.2,30.07,ESE,113,0.0,0.0,61,0.00,,,0.00,WUHU216HW,2013-09-05 23:05:00,
2013-09-05 19:30:00,78.3,64.7,30.08,East,90,0.0,0.0,63,0.00,,,0.00,WUHU216HW,2013-09-05 23:30:00,
2013-09-05 19:35:00,78.3,64.7,30.08,East,90,0.0,0.0,63,0.00,,,0.00,WUHU216HW,2013-09-05 23:35:00,
2013-09-05 20:00:00,76.7,64.4,30.08,East,90,0.0,0.0,66,0.00,,,0.00,WUHU216HW,2013-09-06 00:00:00,
2013-09-05 20:05:00,76.7,64.4,30.08,East,90,0.0,0.0,66,0.00,,,0.00,WUHU216HW,2013-09-06 00:05:00,
2013-09-05 20:30:00,75.4,64.1,30.08,East,90,0.0,0.0,68,0.00,,,0.00,WUHU216HW,2013-09-06 00:30:00,
2013-09-05 20:35:00,75.4,64.1,30.08,East,90,0.0,0.0,68,0.00,,,0.00,WUHU216HW,2013-09-06 00:35:00,
2013-09-05 21:00:00,74.2,63.8,30.09,NNE,23,0.0,0.0,70,0.00,,,0.00,WUHU216HW,2013-09-06 01:00:00,
2013-09-05 21:05:00,74.2,63.8,30.09,NNE,23,0.0,0.0,70,0.00,,,0.00,WUHU216HW,2013-09-06 01:05:00,
2013-09-05 21:30:00,72.7,64.0,30.10,North,0,0.0,0.0,74,0.00,,,0.00,WUHU216HW,2013-09-06 01:30:00,
2013-09-05 21:35:00,72.7,64.0,30.10,North,0,0.0,0.0,74,0.00,,,0.00,WUHU216HW,2013-09-06 01:35:00,
2013-09-05 22:00:00,72.2,63.5,30.10,North,0,0.0,0.0,74,0.00,,,0.00,WUHU216HW,2013-09-06 02:00:00,
2013-09-05 22:05:00,72.2,63.5,30.10,North,0,0.0,0.0,74,0.00,,,0.00,WUHU216HW,2013-09-06 02:05:00,
2013-09-05 22:30:00,71.1,62.7,30.11,North,0,0.0,0.0,75,0.00,,,0.00,WUHU216HW,2013-09-06 02:30:00,
2013-09-05 22:35:00,71.1,62.7,30.11,North,0,0.0,0.0,75,0.00,,,0.00,WUHU216HW,2013-09-06 02:35:00,
2013-09-05 23:00:00,70.6,62.9,30.12,North,0,0.0,0.0,77,0.00,,,0.00,WUHU216HW,2013-09-06 03:00:00,
2013-09-05 23:05:00,70.6,62.9,30.12,North,0,0.0,0.0,77,0.00,,,0.00,WUHU216HW,2013-09-06 03:05:00,
2013-09-05 23:30:00,69.7,62.8,30.12,North,0,0.0,0.0,79,0.00,,,0.00,WUHU216HW,2013-09-06 03:30:00,
2013-09-05 23:35:00,69.7,62.8,30.12,North,0,0.0,0.0,79,0.00,,,0.00,WUHU216HW,2013-09-06 03:35:00,